createdAt,value
2022-10-04T00:03:35.032Z,96.03
2022-10-04T00:08:35.900Z,95.98
2022-10-04T00:13:34.930Z,95.62
2022-10-04T00:18:34.744Z,95.72
2022-10-04T00:23:34.787Z,95.83
2022-10-04T00:28:34.747Z,95.68
2022-10-04T00:33:34.624Z,95.78
2022-10-04T00:38:34.532Z,96.09
2022-10-04T00:43:34.476Z,95.89
2022-10-04T00:48:34.487Z,95.89
2022-10-04T00:53:34.433Z,95.47
2022-10-04T00:58:34.385Z,95.78
2022-10-04T01:03:34.323Z,95.89
2022-10-04T01:08:34.263Z,96.60
2022-10-04T01:13:34.194Z,96.56
2022-10-04T01:18:34.087Z,96.25
2022-10-04T01:23:34.120Z,96.15
2022-10-04T01:28:34.173Z,96.37
2022-10-04T01:33:37.308Z,96.06
2022-10-04T01:38:33.849Z,95.24
2022-10-04T01:43:33.813Z,94.61
2022-10-04T01:48:33.783Z,94.96
2022-10-04T01:53:33.717Z,95.47
2022-10-04T01:58:33.775Z,95.68
2022-10-04T02:03:33.771Z,96.09
2022-10-04T02:08:33.630Z,95.98
2022-10-04T02:13:33.448Z,95.89
2022-10-04T02:18:33.462Z,96.19
2022-10-04T02:23:33.350Z,96.66
2022-10-04T02:28:33.456Z,96.45
2022-10-04T02:33:33.325Z,96.31
2022-10-04T02:38:33.246Z,96.20
2022-10-04T02:43:33.313Z,96.20
2022-10-04T02:48:33.149Z,96.20
2022-10-04T02:53:33.095Z,96.06
2022-10-04T02:58:33.032Z,95.95
2022-10-04T03:03:32.942Z,95.28
2022-10-04T03:08:32.982Z,95.28
2022-10-04T03:13:32.792Z,95.18
2022-10-04T03:18:33.928Z,95.07
2022-10-04T03:23:32.859Z,95.59
2022-10-04T03:28:32.979Z,96.10
2022-10-04T03:33:32.701Z,95.90
2022-10-04T03:38:32.537Z,95.86
2022-10-04T03:43:32.652Z,95.75
2022-10-04T03:48:32.550Z,96.32
2022-10-04T03:53:32.462Z,95.91
2022-10-04T03:58:32.378Z,95.91
2022-10-04T04:03:32.372Z,95.91
2022-10-04T04:08:32.348Z,95.29
2022-10-04T04:13:32.141Z,94.93
2022-10-04T04:18:33.194Z,95.14
2022-10-04T04:23:32.218Z,95.03
2022-10-04T04:28:32.155Z,95.18
2022-10-04T04:33:32.025Z,95.28
2022-10-04T04:38:32.000Z,95.49
2022-10-04T04:43:31.950Z,95.79
2022-10-04T04:48:31.782Z,95.86
2022-10-04T04:53:31.836Z,95.54
2022-10-04T04:58:31.726Z,95.79
2022-10-04T05:03:31.583Z,96.06
2022-10-04T05:08:31.729Z,95.44
2022-10-04T05:13:31.659Z,95.59
2022-10-04T05:18:31.526Z,95.59
2022-10-04T05:23:31.595Z,95.69
2022-10-04T05:28:32.483Z,95.64
2022-10-04T05:33:33.874Z,95.32
2022-10-04T05:38:31.167Z,95.27
2022-10-04T05:43:31.082Z,95.57
2022-10-04T05:48:31.111Z,95.47
2022-10-04T05:53:31.065Z,95.57
2022-10-04T05:58:30.959Z,95.89
2022-10-04T06:03:30.907Z,95.68
2022-10-04T06:08:30.849Z,95.47
2022-10-04T06:13:30.800Z,95.57
2022-10-04T06:18:31.022Z,95.84
2022-10-04T06:23:32.124Z,95.74
2022-10-04T06:28:31.909Z,95.90
2022-10-04T06:33:30.701Z,96.10
2022-10-04T06:38:30.583Z,96.16
2022-10-04T06:43:34.129Z,96.06
2022-10-04T06:48:30.448Z,95.91
2022-10-04T06:53:30.468Z,95.40
2022-10-04T06:58:30.407Z,95.05
2022-10-04T07:03:30.325Z,95.05
2022-10-04T07:08:30.464Z,94.84
2022-10-04T07:13:30.173Z,94.59
2022-10-04T07:18:30.171Z,94.55
2022-10-04T07:23:30.102Z,94.30
2022-10-04T07:28:30.065Z,93.89
2022-10-04T07:33:30.044Z,93.85
2022-10-04T07:38:29.971Z,93.40
2022-10-04T07:43:33.457Z,92.54
2022-10-04T07:48:29.821Z,92.04
2022-10-04T07:53:29.802Z,90.57
2022-10-04T07:58:29.630Z,88.43
2022-10-04T08:03:33.144Z,87.67
2022-10-04T08:08:30.694Z,87.53
2022-10-04T08:13:29.822Z,88.14
2022-10-04T08:18:29.511Z,87.49
2022-10-04T08:23:29.494Z,86.02
2022-10-04T08:28:29.363Z,85.78
2022-10-04T08:33:29.233Z,85.23
2022-10-04T08:38:29.213Z,84.07
2022-10-04T08:43:29.142Z,84.58
2022-10-04T08:48:29.212Z,82.85
2022-10-04T08:53:30.209Z,79.46
2022-10-04T08:58:29.093Z,80.63
2022-10-04T09:03:30.009Z,77.72
2022-10-04T09:08:29.055Z,74.27
2022-10-04T09:13:28.860Z,74.91
2022-10-04T09:18:28.790Z,73.90
2022-10-04T09:23:28.682Z,70.93
2022-10-04T09:28:28.658Z,70.49
2022-10-04T09:33:28.601Z,69.98
2022-10-04T09:38:28.510Z,69.38
2022-10-04T09:43:28.439Z,70.12
2022-10-04T09:48:28.375Z,67.56
2022-10-04T09:53:28.339Z,68.37
2022-10-04T09:58:28.283Z,67.53
2022-10-04T10:03:28.233Z,65.61
2022-10-04T10:08:28.567Z,67.50
2022-10-04T10:13:31.862Z,66.83
2022-10-04T10:18:28.077Z,67.30
2022-10-04T10:23:27.998Z,65.22
2022-10-04T10:28:27.948Z,64.92
2022-10-04T10:33:27.934Z,62.48
2022-10-04T10:38:27.928Z,62.78
2022-10-04T10:43:27.807Z,63.89
2022-10-04T10:48:27.802Z,62.81
2022-10-04T10:53:27.744Z,62.91
2022-10-04T10:58:27.669Z,60.49
2022-10-04T11:03:31.869Z,63.08
2022-10-04T11:08:27.546Z,63.68
2022-10-04T11:13:27.502Z,64.59
2022-10-04T11:18:30.777Z,62.07
2022-10-04T11:23:27.408Z,60.16
2022-10-04T11:28:27.395Z,61.37
2022-10-04T11:33:27.302Z,58.83
2022-10-04T11:38:27.232Z,61.11
2022-10-04T11:43:27.158Z,59.00
2022-10-04T11:48:27.096Z,61.11
2022-10-04T11:53:27.057Z,60.61
2022-10-04T11:58:27.094Z,60.13
2022-10-04T12:03:27.101Z,61.41
2022-10-04T12:08:26.859Z,58.37
2022-10-04T12:13:26.864Z,59.17
2022-10-04T12:18:26.805Z,58.87
2022-10-04T12:23:27.800Z,58.67
2022-10-04T12:28:26.794Z,59.91
2022-10-04T12:33:26.820Z,58.90
2022-10-04T12:38:26.731Z,60.41
2022-10-04T12:43:26.522Z,60.64
2022-10-04T12:48:26.547Z,61.31
2022-10-04T12:53:26.483Z,60.71
2022-10-04T12:58:26.368Z,61.82
2022-10-04T13:03:26.298Z,57.12
2022-10-04T13:08:26.249Z,58.29
2022-10-04T13:13:26.200Z,59.74
2022-10-04T13:18:26.145Z,60.13
2022-10-04T13:23:26.138Z,58.55
2022-10-04T13:28:26.210Z,59.96
2022-10-04T13:33:26.000Z,59.89
2022-10-04T13:38:25.919Z,57.78
2022-10-04T13:43:25.872Z,58.98
2022-10-04T13:48:25.841Z,58.07
2022-10-04T13:53:25.768Z,58.78
2022-10-04T13:58:25.695Z,58.81
2022-10-04T14:03:25.827Z,58.88
2022-10-04T14:08:25.586Z,60.22
2022-10-04T14:13:25.544Z,60.72
2022-10-04T14:18:27.383Z,60.55
2022-10-04T14:23:25.425Z,61.46
2022-10-04T14:28:25.401Z,61.36
2022-10-04T14:33:26.024Z,62.16
2022-10-04T14:38:26.876Z,62.97
2022-10-04T14:43:25.250Z,63.98
2022-10-04T14:48:25.226Z,65.12
2022-10-04T14:53:25.424Z,64.81
2022-10-04T14:58:26.433Z,64.61
2022-10-04T15:03:25.117Z,64.89
2022-10-04T15:08:25.081Z,65.01
2022-10-04T15:13:24.948Z,65.12
2022-10-04T15:18:24.900Z,64.72
2022-10-04T15:23:24.844Z,65.79
2022-10-04T15:28:24.856Z,65.92
2022-10-04T15:33:24.682Z,66.13
2022-10-04T15:38:24.703Z,66.56
2022-10-04T15:43:24.565Z,67.67
2022-10-04T15:48:24.557Z,69.08
2022-10-04T15:53:24.448Z,71.37
2022-10-04T15:58:24.519Z,72.51
2022-10-04T16:03:26.432Z,73.96
2022-10-04T16:08:24.310Z,75.01
2022-10-04T16:13:25.624Z,75.85
2022-10-04T16:18:24.321Z,76.35
2022-10-04T16:23:24.749Z,77.30
2022-10-04T16:28:25.887Z,77.71
2022-10-04T16:33:23.992Z,78.75
2022-10-04T16:38:24.191Z,78.86
2022-10-04T16:43:25.704Z,79.30
2022-10-04T16:48:23.822Z,80.35
2022-10-04T16:53:31.866Z,81.50
2022-10-04T16:58:24.011Z,82.15
2022-10-04T17:03:27.368Z,82.56
2022-10-04T17:08:23.661Z,83.61
2022-10-04T17:13:24.447Z,84.42
2022-10-04T17:18:24.159Z,84.46
2022-10-04T17:23:25.252Z,85.07
2022-10-04T17:28:25.346Z,85.58
2022-10-04T17:34:01.246Z,86.07
2022-10-04T17:38:23.888Z,86.57
2022-10-04T17:43:34.062Z,87.38
2022-10-04T17:48:35.942Z,86.77
2022-10-04T17:53:26.613Z,87.12
2022-10-04T17:58:24.701Z,87.93
2022-10-04T18:03:23.206Z,88.59
2022-10-04T18:08:23.509Z,90.01
2022-10-04T18:13:23.165Z,89.70
2022-10-04T18:18:22.854Z,90.25
2022-10-04T18:23:22.745Z,90.20
2022-10-04T18:28:22.758Z,90.40
2022-10-04T18:33:26.480Z,90.60
2022-10-04T18:38:22.712Z,91.11
2022-10-04T18:43:22.626Z,91.42
2022-10-04T18:48:24.587Z,91.11
2022-10-04T18:53:22.557Z,90.91
2022-10-04T18:58:22.502Z,90.95
2022-10-04T19:03:22.440Z,91.26
2022-10-04T19:08:23.390Z,91.91
2022-10-04T19:13:25.930Z,92.11
2022-10-04T19:18:24.439Z,92.32
2022-10-04T19:23:22.523Z,92.11
2022-10-04T19:28:22.216Z,92.38
2022-10-04T19:33:21.978Z,91.77
2022-10-04T19:38:21.949Z,91.56
2022-10-04T19:43:22.049Z,91.05
2022-10-04T19:48:24.661Z,90.89
2022-10-04T19:53:21.805Z,92.01
2022-10-04T19:58:21.731Z,91.71
2022-10-04T20:03:21.798Z,91.71
2022-10-04T20:08:22.706Z,91.61
2022-10-04T20:13:21.600Z,91.71
2022-10-04T20:18:21.487Z,91.35
2022-10-04T20:23:21.461Z,91.85
2022-10-04T20:28:21.660Z,91.75
2022-10-04T20:33:21.344Z,92.00
2022-10-04T20:38:32.159Z,92.30
2022-10-04T20:43:22.308Z,92.41
2022-10-04T20:48:21.275Z,92.71
2022-10-04T20:53:21.291Z,92.71
2022-10-04T20:58:21.084Z,92.76
2022-10-04T21:03:21.030Z,92.55
2022-10-04T21:08:20.955Z,92.45
2022-10-04T21:13:20.995Z,92.39
2022-10-04T21:18:21.934Z,92.80
2022-10-04T21:23:21.956Z,92.59
2022-10-04T21:28:20.865Z,92.84
2022-10-04T21:33:20.873Z,93.15
2022-10-04T21:38:24.801Z,93.86
2022-10-04T21:43:20.591Z,93.35
2022-10-04T21:48:21.571Z,93.35
2022-10-04T21:53:20.522Z,93.15
2022-10-04T21:58:20.385Z,93.45
2022-10-04T22:03:20.329Z,92.99
2022-10-04T22:08:20.306Z,93.33
2022-10-04T22:13:20.212Z,93.95
2022-10-04T22:18:22.348Z,94.26
2022-10-04T22:23:21.108Z,94.36
2022-10-04T22:28:20.138Z,93.95
2022-10-04T22:33:20.260Z,94.06
2022-10-04T22:38:20.125Z,94.46
2022-10-04T22:43:20.509Z,94.36
2022-10-04T22:48:19.972Z,93.95
2022-10-04T22:53:19.914Z,93.89
2022-10-04T22:58:19.930Z,94.06
2022-10-04T23:03:20.852Z,94.06
2022-10-04T23:08:19.676Z,94.30
2022-10-04T23:13:24.573Z,94.56
2022-10-04T23:18:19.679Z,94.67
2022-10-04T23:23:20.605Z,94.56
2022-10-04T23:28:20.604Z,94.93
2022-10-04T23:33:19.456Z,94.52
2022-10-04T23:38:19.417Z,94.62
2022-10-04T23:43:20.372Z,94.26
2022-10-04T23:48:19.298Z,94.46
2022-10-04T23:53:20.313Z,94.56
2022-10-04T23:58:20.386Z,95.18
